Flight Track Log - Related Links

Times and Time Zones

All times are in EDT time to prevent confusion due to time zone crossing. See the BSK8643 flight status page for this flight to view local times or setup timezone preferences in your user account.

Time Position Orientation Groundspeed Altitude Reporting Facility
EDT Latitude Longitude Course Direction KTS MPH feet Rate Location/Type
Sun 10:36:17 PM 33.5103 -85.9472 86° East 231 266 4,200  Level Atlanta Center
Sun 10:36:33 PM 33.4975 -85.9569 212° Southwest 245 282 4,600 2,526 Climbing Atlanta Center
Sun 10:37:33 PM 33.4244 -85.9553 179° South 255 293 7,400 2,750 Climbing Atlanta Center
Sun 10:38:33 PM 33.4092 -85.8628 101° East 194 223 10,100 1,950 Climbing Atlanta Center
Sun 10:39:33 PM 33.4108 -85.7558 89° East 256 295 11,300 2,137 Climbing Atlanta Center
Sun 10:40:00 PM 33.6028 -85.0033 86° East  Level FlightAware Approximate
Sun 10:41:00 PM 33.6099 -84.8824 86° East  Level FlightAware Approximate
Sun 10:45:37 PM 33.5180 -84.9320 89° East 458 527 25,200  Level FlightAware ADS-B
Sun 10:46:12 PM 33.5380 -84.8430 75° East 467 537 26,100 1,553 Climbing FlightAware ADS-B
Sun 10:47:02 PM 33.5660 -84.7210 75° East 472 543 27,400 1,938 Climbing FlightAware ADS-B
Sun 10:47:17 PM 33.5773 -84.6677 76° East 470 541 28,200 1,655 Climbing FlightAware ADS-B
Sun 10:48:00 PM 33.6010 -84.5597 75° East 474 545 29,000 480 Climbing FlightAware ADS-B
Sun 10:48:57 PM 33.6341 -84.4153 75° East 478 550 29,000  Level FlightAware ADS-B
Sun 10:49:07 PM 33.6420 -84.3876 71° East 481 554 29,000  Level FlightAware ADS-B
Sun 10:49:39 PM 33.6642 -84.3095 71° East 479 551 29,000  Level FlightAware ADS-B
Sun 10:50:32 PM 33.6980 -84.1880 71° East 476 548 29,000  Level FlightAware ADS-B
Sun 10:50:43 PM 33.7103 -84.1462 71° East 477 549 29,000  Level FlightAware ADS-B
Sun 10:51:48 PM 33.7557 -83.9844 71° East 477 549 29,000  Level FlightAware ADS-B
Sun 10:52:30 PM 33.7851 -83.8799 71° East 477 549 29,000  Level FlightAware ADS-B
Sun 10:53:11 PM 33.8140 -83.7757 72° East 480 552 29,000  Level FlightAware ADS-B
Sun 10:53:42 PM 33.8358 -83.6973 71° East 481 554 29,000 -435 Level FlightAware ADS-B
Sun 10:57:47 PM 34.0490 -83.1180 66° East 461 531 27,000 -526 Descending FlightAware ADS-B
Sun 10:58:27 PM 34.0900 -83.0270 61° Northeast 459 528 26,500 -825 Descending FlightAware ADS-B
Sun 10:59:07 PM 34.1280 -82.9420 62° Northeast 444 511 25,900 -988 Descending FlightAware ADS-B
Sun 10:59:52 PM 34.1720 -82.8410 62° Northeast 429 494 25,100 -1,050 Descending FlightAware ADS-B
Sun 11:00:27 PM 34.2030 -82.7710 62° Northeast 420 483 24,500 -825 Descending FlightAware ADS-B
Sun 11:01:12 PM 34.2400 -82.6860 62° Northeast 420 483 24,000 -333 Descending FlightAware ADS-B
Sun 11:01:57 PM 34.2840 -82.5860 62° Northeast 434 499 24,000  Level FlightAware ADS-B
Sun 11:02:37 PM 34.3210 -82.5000 62° Northeast 436 502 24,000  Level FlightAware ADS-B
Sun 11:03:22 PM 34.3630 -82.4050 62° Northeast 433 498 24,000  Level FlightAware ADS-B
Sun 11:04:02 PM 34.4010 -82.3180 62° Northeast 433 498 24,000 -1,412 Level FlightAware ADS-B
Sun 11:04:47 PM 34.4430 -82.2210 62° Northeast 448 516 22,000 -2,682 Descending FlightAware ADS-B
Sun 11:05:27 PM 34.4790 -82.1360 63° Northeast 446 513 20,200 -2,467 Descending FlightAware ADS-B
Sun 11:06:17 PM 34.5270 -82.0250 62° Northeast 434 499 18,300 -2,160 Descending FlightAware ADS-B
Sun 11:07:07 PM 34.5700 -81.9250 62° Northeast 409 471 16,600 -1,200 Descending FlightAware ADS-B
Sun 11:07:47 PM 34.6030 -81.8500 62° Northeast 407 468 16,500 -75 Descending FlightAware ADS-B
Sun 11:08:27 PM 34.6330 -81.7820 62° Northeast 407 468 16,500  Level FlightAware ADS-B
Sun 11:09:07 PM 34.6630 -81.7130 62° Northeast 407 468 16,500  Level FlightAware ADS-B
Sun 11:09:47 PM 34.6930 -81.6440 62° Northeast 407 468 16,500  Level FlightAware ADS-B
Sun 11:10:37 PM 34.7300 -81.5580 62° Northeast 407 468 16,500 -2,200 Level FlightAware ADS-B
Sun 11:12:17 PM 34.7890 -81.4200 62° Northeast 256 295 11,000 -2,357 Descending FlightAware ADS-B
Sun 11:12:57 PM 34.7950 -81.3720 81° East 256 295 11,000  Level FlightAware ADS-B
Sun 11:13:37 PM 34.8000 -81.3230 83° East 256 295 11,000 -2,031 Level FlightAware ADS-B
Sun 11:14:02 PM 34.8003 -81.2664 83° East 244 281 8,800 -2,893 Descending Atlanta Center
Sun 11:14:33 PM 34.8036 -81.2333 83° East 238 274 8,300 -885 Descending Atlanta Center
Sun 11:15:03 PM 34.8108 -81.1900 79° East 242 278 7,900 -800 Descending Atlanta Center
Sun 11:15:33 PM 34.8122 -81.1597 87° East 238 274 7,500 -885 Descending Atlanta Center
Sun 11:16:04 PM 34.8175 -81.1139 82° East 217 250 7,000 -900 Descending Atlanta Center
Sun 11:16:33 PM 34.8189 -81.0886 86° East 223 257 6,600 -873 Descending Atlanta Center
Sun 11:16:59 PM 34.8242 -81.0481 81° East 212 244 6,200 -1,100 Descending Atlanta Center
Sun 11:17:33 PM 34.8297 -81.0175 78° East 216 249 5,500 -984 Descending Atlanta Center
Sun 11:18:00 PM 34.8331 -80.9819 83° East 202 232 5,200 -800 Descending Atlanta Center
Sun 11:18:33 PM 34.8383 -80.9464 80° East 199 229 4,700 -700 Descending Atlanta Center
Sun 11:19:00 PM 34.8439 -80.9183 76° East 177 204 4,500 -805 Descending Atlanta Center
Sun 11:19:55 PM 34.8894 -80.8989 19° North 222 255 3,600 -776 Descending Atlanta Center
Sun 11:20:56 PM 34.9389 -80.8742 22° Northeast 195 224 3,000 -295 Descending Atlanta Center
Sun 11:21:57 PM 34.9883 -80.8519 20° North 177 204 3,000  Level Atlanta Center
Sun 11:22:57 PM 35.0336 -80.8300 22° Northeast 175 201 3,000 -50 Level Atlanta Center
Sun 11:23:58 PM 35.0811 -80.8103 19° North 175 201 2,900 -94 Descending Atlanta Center
Sun 11:25:05 PM 35.1264 -80.7858 24° Northeast 166 191 2,800 -141 Descending Atlanta Center
Sun 11:26:06 PM 35.1697 -80.7661 20° North 159 183 2,600 -148 Descending Atlanta Center
Sun 11:27:07 PM 35.2153 -80.7492 17° North 168 193 2,500 -52 Descending Atlanta Center
Sun 11:28:01 PM 35.2567 -80.7400 10° North 169 194 2,500 -157 Level Atlanta Center
Sun 11:29:02 PM 35.3022 -80.7306 10° North 166 191 2,200 -563 Descending Atlanta Center
Sun 11:30:09 PM 35.3478 -80.7183 12° North 141 162 1,300 -496 Descending Atlanta Center
Sun 11:31:15 PM 35.3792 -80.7147 North 139 160 1,100 -62 Descending Atlanta Center
Sun 11:33:23 PM 35.3792 -80.7147 209° Southwest 139 160 1,100  Level Atlanta Center

Login

Don't have an account? Register now (free) for customized features, flight alerts, and more!